Roswell, NM

5:25 AM MDT on June 02, 2015 (GMT -0600)
Roswell Industrial | | Change Station
CLOSE
Current Station
Airport
Location: Roswell,
Elevation: 3668 ft
Nearby Weather Stations

Elev 3668 ft 33.30 °N, 104.53 °W | Updated 34 minutes ago

Clear
Clear
64 °F
Feels Like 64 °F
N
7
Wind Variable Wind from WSW

Today
High -- | Low -- °F
--% Chance of Precip.
Yesterday
High -- | Low -- °F
Precip. -- in
5:49 AM 8:03 PM
Full, 100% visible
Pressure 29.84 in
Visibility 10.0 miles
Clouds Clear
Dew Point 55 °F
Humidity 73%
Rainfall 0.00 in
Snow Depth Not available.
UV 0 out of 12
Pollen 5.80 out of 12
Air Quality Not available.
Flu Activity Sporadic
METAR KROW 021051Z AUTO 24006KT 10SM CLR 18/13 A3003 RMK AO2 SLP103 T01780128

More Conditions Fewer Conditions

Pressure 29.84 in
Visibility 10.0 miles
Clouds Clear
Dew Point 55 °F
Humidity 73%
Rainfall 0.00 in
Snow Depth Not available.
UV 0 out of 12
Pollen 5.80 out of 12
Air Quality Not available.
Flu Activity Sporadic
METAR KROW 021051Z AUTO 24006KT 10SM CLR 18/13 A3003 RMK AO2 SLP103 T01780128

More Conditions Fewer Conditions

10-Day Weather Forecast

Almanac

Astronomy

Jun. 02, 2015 Rise Set
Actual Time
Civil Twilight
Nautical Twilight
Astronomical Twilight
Moon
Length of Visible Light
Length of Day
Tomorrow will be .
, % of the Moon is Illuminated

Today's Extremes

State Highs State Lows

Community

WunderPhotos

Upload Photos

1,825,912 photos uploaded!

WunderBlogs® & News

Nearby

Air Quality

  Air Quality AQ Index Pollutant
Not available.

Snow Depth

Station Depth Elevation

Earthquake Activity

City Distance Mag. Time & Date
Minimum magnitude displayed is 2.5.

Coastal Water Temperatures

Place Temperature

Stations

Nearby Weather Stations

Station Location Temp. Windchill Dew Point Humidity Wind Precip. Elev Updated Type